createdAt,value
2023-04-17T00:03:25.433Z,22.83
2023-04-17T00:08:28.582Z,20.55
2023-04-17T00:13:33.055Z,21.38
2023-04-17T00:18:36.345Z,20.75
2023-04-17T00:23:39.635Z,21.70
2023-04-17T00:28:44.140Z,21.52
2023-04-17T00:33:47.373Z,20.98
2023-04-17T00:38:50.475Z,21.95
2023-04-17T00:43:54.961Z,21.60
2023-04-17T00:48:58.122Z,21.73
2023-04-17T00:54:01.546Z,23.40
2023-04-17T00:59:08.751Z,21.50
2023-04-17T01:04:12.227Z,22.58
2023-04-17T01:09:15.814Z,21.60
2023-04-17T01:14:20.674Z,21.50
2023-04-17T01:19:24.008Z,23.23
2023-04-17T01:24:28.655Z,23.15
2023-04-17T01:29:32.285Z,23.73
2023-04-17T01:34:37.418Z,23.67
2023-04-17T01:39:42.416Z,22.10
2023-04-17T01:44:45.947Z,25.08
2023-04-17T01:49:49.277Z,24.20
2023-04-17T01:54:54.037Z,25.30
2023-04-17T01:59:57.152Z,24.20
2023-04-17T02:05:00.920Z,25.60
2023-04-17T02:10:05.678Z,25.48
2023-04-17T02:15:09.299Z,25.05
2023-04-17T02:20:13.108Z,27.73
2023-04-17T02:25:18.034Z,25.48
2023-04-17T02:30:21.249Z,26.55
2023-04-17T02:35:25.683Z,28.42
2023-04-17T02:40:30.618Z,26.77
2023-04-17T02:45:37.806Z,28.58
2023-04-17T02:50:40.916Z,29.50
2023-04-17T02:55:51.237Z,28.88
2023-04-17T03:01:01.274Z,27.77
2023-04-17T03:06:06.956Z,26.55
2023-04-17T03:11:11.717Z,26.80
2023-04-17T03:16:15.513Z,24.77
2023-04-17T03:21:21.250Z,24.98
2023-04-17T03:26:27.806Z,25.17
2023-04-17T03:31:31.569Z,24.15
2023-04-17T03:36:35.361Z,24.85
2023-04-17T03:41:41.502Z,24.02
2023-04-17T03:46:45.498Z,24.92
2023-04-17T03:51:49.161Z,23.00
2023-04-17T03:56:57.766Z,23.17
2023-04-17T04:02:01.852Z,25.20
2023-04-17T04:07:09.102Z,24.60
2023-04-17T04:12:14.436Z,25.85
2023-04-17T04:17:21.355Z,24.98
2023-04-17T04:22:25.746Z,25.48
2023-04-17T04:27:33.779Z,25.20
2023-04-17T04:38:14.169Z,24.50
2023-04-17T04:43:22.663Z,25.02
2023-04-17T04:48:30.064Z,18.57
2023-04-17T04:53:33.307Z,24.38
2023-04-17T04:58:38.630Z,26.60
2023-04-17T05:03:42.257Z,26.13
2023-04-17T05:08:47.249Z,26.95
2023-04-17T05:13:52.984Z,26.83
2023-04-17T05:19:04.086Z,28.45
2023-04-17T05:24:29.456Z,27.67
2023-04-17T05:29:34.341Z,27.05
2023-04-17T05:34:37.587Z,28.15
2023-04-17T05:39:41.424Z,26.88
2023-04-17T05:44:46.034Z,28.15
2023-04-17T05:49:51.299Z,28.15
2023-04-17T05:54:54.908Z,27.73
2023-04-17T05:59:59.621Z,32.90
2023-04-17T06:05:02.936Z,29.83
2023-04-17T06:10:06.663Z,30.00
2023-04-17T06:15:11.962Z,27.08
2023-04-17T06:20:15.444Z,29.58
2023-04-17T06:25:19.128Z,27.88
2023-04-17T06:30:23.796Z,30.27
2023-04-17T06:35:30.783Z,28.25
2023-04-17T06:40:42.181Z,28.05
2023-04-17T06:45:47.023Z,28.73
2023-04-17T06:50:50.304Z,27.92
2023-04-17T06:55:54.602Z,28.50
2023-04-17T07:00:59.230Z,28.85
2023-04-17T07:06:04.376Z,29.95
2023-04-17T07:11:07.522Z,28.80
2023-04-17T07:16:12.059Z,32.95
2023-04-17T07:21:15.515Z,28.30
2023-04-17T07:26:18.784Z,29.70
2023-04-17T07:31:23.457Z,31.73
2023-04-17T07:36:28.454Z,30.35
2023-04-17T07:41:31.619Z,33.17
2023-04-17T07:46:36.205Z,32.83
2023-04-17T07:51:41.299Z,32.58
2023-04-17T07:56:46.626Z,32.42
2023-04-17T08:01:52.554Z,30.90
2023-04-17T08:06:55.985Z,32.30
2023-04-17T08:11:59.167Z,31.30
2023-04-17T08:17:04.159Z,30.88
2023-04-17T08:22:08.140Z,32.50
2023-04-17T08:27:13.682Z,31.40
2023-04-17T08:32:18.377Z,30.13
2023-04-17T08:37:21.625Z,30.65
2023-04-17T08:42:25.981Z,28.98
2023-04-17T08:47:31.038Z,28.73
2023-04-17T08:52:34.270Z,32.00
2023-04-17T08:57:39.548Z,29.23
2023-04-17T09:02:55.068Z,31.63
2023-04-17T09:08:08.813Z,29.38
2023-04-17T09:13:14.567Z,28.13
2023-04-17T09:18:26.436Z,28.27
2023-04-17T09:23:30.144Z,25.85
2023-04-17T09:28:35.448Z,28.35
2023-04-17T09:33:56.337Z,26.80
2023-04-17T09:39:01.003Z,25.58
2023-04-17T09:44:06.505Z,25.90
2023-04-17T09:49:15.224Z,24.40
2023-04-17T09:54:20.136Z,22.80
2023-04-17T09:59:24.932Z,27.13
2023-04-17T10:04:29.861Z,23.17
2023-04-17T10:09:33.019Z,21.52
2023-04-17T10:14:37.573Z,22.85
2023-04-17T10:19:42.173Z,23.95
2023-04-17T10:24:45.387Z,23.23
2023-04-17T10:29:55.179Z,23.10
2023-04-17T10:35:00.790Z,22.65
2023-04-17T10:40:05.768Z,22.63
2023-04-17T10:45:19.455Z,19.25
2023-04-17T10:50:28.846Z,21.00
2023-04-17T10:55:32.091Z,18.10
2023-04-17T11:00:37.476Z,16.33
2023-04-17T11:05:47.279Z,17.92
2023-04-17T11:10:53.273Z,17.45
2023-04-17T11:15:56.436Z,16.70
2023-04-17T11:21:00.979Z,22.35
2023-04-17T11:26:04.291Z,18.58
2023-04-17T11:31:07.608Z,15.48
2023-04-17T11:36:12.353Z,16.05
2023-04-17T11:41:15.682Z,13.85
2023-04-17T11:46:20.068Z,14.70
2023-04-17T11:51:24.646Z,16.15
2023-04-17T11:56:29.660Z,14.23
2023-04-17T12:01:32.996Z,16.20
2023-04-17T12:06:40.551Z,15.35
2023-04-17T12:11:44.000Z,15.30
2023-04-17T12:16:50.120Z,14.65
2023-04-17T12:21:55.230Z,15.23
2023-04-17T12:26:58.813Z,14.70
2023-04-17T12:32:01.985Z,13.68
2023-04-17T12:37:06.618Z,13.75
2023-04-17T12:42:09.866Z,13.43
2023-04-17T12:47:13.064Z,11.10
2023-04-17T12:52:17.641Z,12.77
2023-04-17T12:57:20.890Z,12.00
2023-04-17T13:02:24.212Z,12.20
2023-04-17T13:07:29.927Z,12.95
2023-04-17T13:12:33.091Z,11.75
2023-04-17T13:17:37.152Z,11.25
2023-04-17T13:22:41.714Z,10.98
2023-04-17T13:27:44.922Z,10.10
2023-04-17T13:32:48.038Z,10.02
2023-04-17T13:37:52.647Z,9.40
2023-04-17T13:42:55.796Z,10.35
2023-04-17T13:48:00.404Z,9.77
2023-04-17T13:53:05.298Z,10.77
2023-04-17T13:58:08.448Z,9.07
2023-04-17T14:03:11.808Z,12.43
2023-04-17T14:08:16.499Z,10.30
2023-04-17T14:13:19.644Z,9.65
2023-04-17T14:18:24.787Z,12.32
2023-04-17T14:23:29.511Z,10.32
2023-04-17T14:28:32.583Z,10.35
2023-04-17T14:33:35.687Z,11.45
2023-04-17T14:38:40.223Z,10.75
2023-04-17T14:43:43.304Z,11.55
2023-04-17T14:53:53.934Z,10.20
2023-04-17T14:58:57.238Z,10.93
2023-04-17T15:04:00.624Z,11.23
2023-04-17T15:09:06.349Z,11.75
2023-04-17T15:14:09.590Z,11.43
2023-04-17T15:19:12.907Z,10.43
2023-04-17T15:24:17.569Z,10.25
2023-04-17T15:29:20.672Z,11.32
2023-04-17T15:34:24.599Z,11.52
2023-04-17T15:39:29.182Z,11.82
2023-04-17T15:44:33.959Z,11.38
2023-04-17T15:49:37.195Z,10.35
2023-04-17T15:54:41.892Z,10.15
2023-04-17T15:59:44.987Z,10.18
2023-04-17T16:04:48.258Z,9.40
2023-04-17T16:09:52.782Z,10.10
2023-04-17T16:14:55.941Z,9.85
2023-04-17T16:19:59.109Z,9.68
2023-04-17T16:25:03.597Z,9.00
2023-04-17T16:30:07.602Z,9.30
2023-04-17T16:35:10.917Z,9.07
2023-04-17T16:40:15.506Z,9.50
2023-04-17T16:45:18.712Z,9.75
2023-04-17T16:50:23.276Z,9.38
2023-04-17T16:55:29.701Z,10.77
2023-04-17T17:00:32.964Z,9.75
2023-04-17T17:05:36.140Z,9.32
2023-04-17T17:10:40.787Z,10.05
2023-04-17T17:15:43.954Z,15.02
2023-04-17T17:20:47.571Z,10.10
2023-04-17T17:25:52.130Z,11.50
2023-04-17T17:30:59.324Z,10.65
2023-04-17T17:36:02.890Z,10.30
2023-04-17T17:41:07.543Z,9.93
2023-04-17T17:46:10.694Z,9.88
2023-04-17T17:51:14.006Z,10.10
2023-04-17T17:56:18.830Z,9.85
2023-04-17T18:01:23.499Z,9.00
2023-04-17T18:06:27.925Z,9.25
2023-04-17T18:11:32.364Z,9.38
2023-04-17T18:16:37.172Z,8.52
2023-04-17T18:21:40.501Z,7.43
2023-04-17T18:26:45.036Z,8.23
2023-04-17T18:31:48.215Z,7.30
2023-04-17T18:36:51.477Z,7.55
2023-04-17T18:41:57.045Z,7.80
2023-04-17T18:47:00.397Z,7.68
2023-04-17T18:52:03.683Z,7.55
2023-04-17T18:57:08.235Z,7.53
2023-04-17T19:02:11.408Z,8.07
2023-04-17T19:07:14.553Z,7.63
2023-04-17T19:12:19.116Z,6.57
2023-04-17T19:17:22.377Z,7.20
2023-04-17T19:22:25.646Z,6.97
2023-04-17T19:27:30.152Z,7.22
2023-04-17T19:32:33.246Z,7.10
2023-04-17T19:37:36.388Z,7.15
2023-04-17T19:42:40.877Z,7.13
2023-04-17T19:47:44.050Z,6.68
2023-04-17T19:52:47.308Z,8.10
2023-04-17T19:57:52.293Z,7.75
2023-04-17T20:02:56.293Z,7.50
2023-04-17T20:07:59.461Z,7.72
2023-04-17T20:13:03.987Z,7.85
2023-04-17T20:18:07.920Z,7.20
2023-04-17T20:23:11.147Z,6.85
2023-04-17T20:28:15.721Z,10.68
2023-04-17T20:33:18.932Z,6.57
2023-04-17T20:38:22.102Z,6.45
2023-04-17T20:43:26.620Z,5.72
2023-04-17T20:48:29.716Z,6.32
2023-04-17T20:53:33.039Z,6.45
2023-04-17T20:58:37.891Z,7.00
2023-04-17T21:03:42.801Z,7.32
2023-04-17T21:08:45.988Z,7.60
2023-04-17T21:13:50.516Z,12.63
2023-04-17T21:18:53.628Z,7.43
2023-04-17T21:23:56.787Z,7.82
2023-04-17T21:29:01.425Z,8.60
2023-04-17T21:34:04.614Z,8.80
2023-04-17T21:39:08.369Z,8.52
2023-04-17T21:44:13.107Z,9.07
2023-04-17T21:49:16.481Z,9.35
2023-04-17T21:54:19.572Z,9.70
2023-04-17T21:59:24.402Z,9.45
2023-04-17T22:04:27.941Z,10.52
2023-04-17T22:09:31.097Z,11.63
2023-04-17T22:14:35.601Z,10.68
2023-04-17T22:19:38.753Z,12.05
2023-04-17T22:24:42.644Z,11.75
2023-04-17T22:29:47.167Z,11.68
2023-04-17T22:34:50.687Z,11.07
2023-04-17T22:40:12.547Z,11.55
2023-04-17T22:45:35.971Z,11.93
2023-04-17T22:50:39.418Z,11.40
2023-04-17T22:55:42.578Z,12.20
2023-04-17T23:00:47.289Z,11.07
2023-04-17T23:05:50.520Z,10.55
2023-04-17T23:10:57.790Z,12.25
2023-04-17T23:16:02.395Z,11.50
2023-04-17T23:21:05.800Z,11.32
2023-04-17T23:26:09.264Z,11.27
2023-04-17T23:31:14.002Z,11.20
2023-04-17T23:36:17.381Z,10.70
2023-04-17T23:41:20.516Z,10.80
2023-04-17T23:46:25.195Z,12.02
2023-04-17T23:51:28.296Z,11.07
2023-04-17T23:56:31.439Z,10.32
